Time;durP1;ratioP1;P1;durP2;ratioP2;P2;SDS_P1;SDS_P2;PMS_P1;PMS_P2;Temp;Humidity;BMP_temperature;BMP_pressure;BME280_temperature;BME280_humidity;BME280_pressure;Samples;Min_cycle;Max_cycle;Signal;HPM_P1;HPM_P2
2020/12/15 00:16:56;;;;;;;13.33;10.60;;;4.20;99.90;;;;;;6017641;23;20500;-88
2020/12/15 00:19:24;;;;;;;11.80;10.57;;;4.30;99.90;;;;;;6043807;23;20424;-88
2020/12/15 00:21:52;;;;;;;12.37;10.43;;;4.30;99.90;;;;;;6216442;23;20443;-88
2020/12/15 00:24:19;;;;;;;14.17;10.60;;;4.30;99.90;;;;;;6196541;23;20490;-88
2020/12/15 00:26:56;;;;;;;12.43;10.20;;;4.30;99.90;;;;;;6194993;23;20469;-87
2020/12/15 00:29:27;;;;;;;13.20;9.77;;;4.40;99.90;;;;;;6192550;23;20394;-88
2020/12/15 00:31:56;;;;;;;11.13;9.93;;;4.40;99.90;;;;;;6192752;23;20389;-88
2020/12/15 00:34:25;;;;;;;16.60;10.60;;;4.40;99.90;;;;;;6190835;23;20393;-88
2020/12/15 00:36:52;;;;;;;12.10;9.97;;;4.40;99.90;;;;;;6217443;23;20379;-87
2020/12/15 00:39:20;;;;;;;12.20;10.03;;;4.50;99.90;;;;;;6190545;23;20470;-89
2020/12/15 00:41:53;;;;;;;11.87;10.37;;;4.40;99.90;;;;;;6189440;23;20380;-89
2020/12/15 00:44:27;;;;;;;13.17;10.83;;;4.50;99.90;;;;;;6215840;23;20401;-89
2020/12/15 00:55:06;;;;;;;;;;;;;;;;;;;;;
2020/12/15 01:01:51;;;;;;;;;;;;;;;;;;;;;
2020/12/15 01:05:16;;;;;;;11.80;9.50;;;4.50;99.90;;;;;;6213575;23;20454;-89
2020/12/15 01:09:11;;;;;;;;;;;;;;;;;;;;;
2020/12/15 01:11:47;;;;;;;11.20;8.57;;;4.50;99.90;;;;;;6063866;23;20478;-89
2020/12/15 01:14:31;;;;;;;11.40;8.40;;;4.50;99.90;;;;;;6217049;23;20941;-89
2020/12/15 01:17:09;;;;;;;10.30;9.00;;;4.50;99.90;;;;;;6190127;23;20475;-89
2020/12/15 01:19:48;;;;;;;9.70;8.20;;;4.50;99.90;;;;;;6188657;23;20422;-88
2020/12/15 01:26:37;;;;;;;9.40;8.30;;;4.60;99.90;;;;;;6152446;23;20432;-89
2020/12/15 01:29:50;;;;;;;9.30;8.40;;;4.70;99.90;;;;;;6172088;23;20397;-90
2020/12/15 01:38:35;;;;;;;10.47;9.30;;;4.70;99.90;;;;;;6216133;23;20430;-90
2020/12/15 01:41:12;;;;;;;13.97;9.60;;;4.70;99.90;;;;;;6210522;23;20462;-90
2020/12/15 01:43:40;;;;;;;9.83;8.93;;;4.80;99.90;;;;;;6212637;23;20406;-89
2020/12/15 01:46:08;;;;;;;9.73;8.50;;;4.80;99.90;;;;;;6185674;23;20394;-89
2020/12/15 01:48:42;;;;;;;11.60;8.97;;;4.80;99.90;;;;;;6184759;23;20505;-90
2020/12/15 05:46:37;;;;;;;10.63;9.23;;;5.10;99.90;;;;;;6243468;23;20674;-95
2020/12/15 06:05:43;;;;;;;9.63;8.63;;;5.20;99.90;;;;;;6244778;23;20463;-96
2020/12/15 06:31:59;;;;;;;11.70;8.53;;;5.40;99.90;;;;;;6241032;23;20379;-92
2020/12/15 06:34:45;;;;;;;9.43;7.80;;;5.40;99.90;;;;;;6212012;23;20377;-90
2020/12/15 06:37:18;;;;;;;10.20;8.87;;;5.40;99.90;;;;;;6208797;23;20412;-91
2020/12/15 06:40:18;;;;;;;;;;;;;;;;;;;;;
2020/12/15 06:43:00;;;;;;;9.07;8.27;;;5.30;99.90;;;;;;6206207;23;20513;-90
2020/12/15 06:52:34;;;;;;;8.63;7.83;;;5.10;99.90;;;;;;6211832;23;20393;-92
2020/12/15 06:55:09;;;;;;;8.27;7.47;;;5.20;99.90;;;;;;6184007;23;20736;-91
2020/12/15 07:02:08;;;;;;;;;;;;;;;;;;;;;
2020/12/15 07:05:21;;;;;;;10.40;8.23;;;5.40;99.90;;;;;;6123337;23;20478;-94
2020/12/15 07:21:19;;;;;;;;;;;;;;;;;;;;;
2020/12/15 07:37:59;;;;;;;7.60;6.83;;;5.50;99.90;;;;;;6212387;23;20845;-90
2020/12/15 07:50:01;;;;;;;8.37;6.77;;;5.30;99.90;;;;;;6215205;23;20409;-93
2020/12/15 07:52:46;;;;;;;8.83;6.73;;;5.40;99.90;;;;;;6212765;23;20488;-91
2020/12/15 07:55:39;;;;;;;10.47;8.60;;;5.40;99.90;;;;;;6213925;23;20384;-92
2020/12/15 07:58:26;;;;;;;7.10;6.40;;;5.50;99.90;;;;;;6215933;23;20441;-92
2020/12/15 08:01:24;;;;;;;7.83;7.03;;;5.40;99.90;;;;;;6207576;23;20397;-91
2020/12/15 08:04:47;;;;;;;9.10;7.27;;;5.40;99.90;;;;;;6211850;23;20444;-93
2020/12/15 08:07:57;;;;;;;8.47;7.43;;;5.50;99.90;;;;;;6211833;23;20393;-93
2020/12/15 08:10:50;;;;;;;8.37;6.90;;;5.60;99.90;;;;;;6215281;23;20383;-92
2020/12/15 08:13:55;;;;;;;8.47;7.53;;;5.80;99.90;;;;;;6210366;23;20446;-92
2020/12/15 08:16:26;;;;;;;9.90;8.00;;;5.80;99.90;;;;;;6205029;23;20462;-87
2020/12/15 08:19:04;;;;;;;103.57;93.13;;;6.00;99.90;;;;;;6200398;23;20520;-87
2020/12/15 08:28:22;;;;;;;7.90;7.00;;;6.30;99.90;;;;;;6207652;23;20412;-90
2020/12/15 08:38:20;;;;;;;11.30;8.00;;;6.10;99.90;;;;;;6208379;23;20472;-93
2020/12/15 09:07:34;;;;;;;10.53;8.63;;;6.00;99.90;;;;;;6238199;23;20885;-86
2020/12/15 09:13:28;;;;;;;8.70;7.50;;;6.00;99.90;;;;;;6244003;23;20379;-84
2020/12/15 09:15:56;;;;;;;8.70;7.80;;;6.10;99.90;;;;;;6216116;23;20710;-82
2020/12/15 09:18:48;;;;;;;8.33;7.53;;;6.10;99.90;;;;;;6242486;23;20805;-89
2020/12/15 09:21:16;;;;;;;9.57;7.60;;;6.30;99.90;;;;;;6211169;23;20436;-84
2020/12/15 09:23:52;;;;;;;9.37;7.90;;;6.40;99.90;;;;;;6215939;23;20720;-84
2020/12/15 09:26:20;;;;;;;8.43;7.63;;;6.40;99.90;;;;;;6215757;23;20386;-84
2020/12/15 09:28:47;;;;;;;9.67;7.57;;;6.40;99.90;;;;;;6215261;23;20385;-86
2020/12/15 09:31:14;;;;;;;8.50;7.67;;;6.50;99.90;;;;;;6214401;23;20389;-84
2020/12/15 09:33:41;;;;;;;10.43;8.70;;;6.60;99.90;;;;;;6212720;23;20394;-83
2020/12/15 09:36:07;;;;;;;9.50;7.67;;;6.70;99.90;;;;;;6215601;23;20418;-83
2020/12/15 09:38:32;;;;;;;10.00;8.30;;;6.80;99.90;;;;;;6215548;23;20434;-83
2020/12/15 09:40:58;;;;;;;8.93;8.03;;;6.80;99.90;;;;;;6214615;23;20151;-82
2020/12/15 09:43:24;;;;;;;25.97;11.50;;;6.90;99.90;;;;;;6214912;23;20159;-84
2020/12/15 09:45:50;;;;;;;8.27;7.43;;;7.00;99.90;;;;;;6216384;23;20208;-84
2020/12/15 09:48:17;;;;;;;8.00;7.07;;;7.00;99.90;;;;;;6214560;23;20397;-85
2020/12/15 09:50:42;;;;;;;8.40;6.87;;;7.10;99.90;;;;;;6213924;23;20400;-84
2020/12/15 09:53:08;;;;;;;9.43;8.20;;;7.10;99.90;;;;;;6215625;23;20477;-85
2020/12/15 09:55:34;;;;;;;8.60;7.13;;;7.20;99.90;;;;;;6211800;23;20599;-82
2020/12/15 09:58:00;;;;;;;10.77;7.90;;;7.30;99.90;;;;;;6214998;23;20435;-83
2020/12/15 10:00:25;;;;;;;8.47;7.60;;;7.20;99.90;;;;;;6212492;23;20155;-82
2020/12/15 10:02:51;;;;;;;9.40;7.73;;;7.10;99.90;;;;;;6214103;23;20182;-83
2020/12/15 10:05:17;;;;;;;12.40;8.97;;;7.10;99.90;;;;;;6208458;23;20566;-83
2020/12/15 10:07:42;;;;;;;10.90;9.43;;;7.20;99.90;;;;;;6208210;23;20484;-83
2020/12/15 10:10:10;;;;;;;12.33;9.40;;;7.20;99.90;;;;;;6208880;23;20160;-83
2020/12/15 10:12:35;;;;;;;13.20;9.50;;;7.30;99.90;;;;;;6208718;23;20224;-83
2020/12/15 10:15:01;;;;;;;13.30;9.13;;;7.30;99.90;;;;;;6209563;23;20458;-84
2020/12/15 10:17:27;;;;;;;14.50;9.63;;;7.30;99.90;;;;;;6210607;23;20205;-83
2020/12/15 10:19:53;;;;;;;17.20;9.47;;;7.40;99.90;;;;;;6209780;23;20157;-83
2020/12/15 10:22:19;;;;;;;9.20;8.13;;;7.50;99.90;;;;;;6209089;23;20405;-83
2020/12/15 10:24:44;;;;;;;9.90;7.70;;;7.60;99.90;;;;;;6209879;23;20165;-83
2020/12/15 10:27:11;;;;;;;9.20;7.97;;;7.70;99.90;;;;;;6209728;23;20251;-82
2020/12/15 10:29:37;;;;;;;9.47;8.50;;;7.90;99.90;;;;;;6209071;23;20163;-83
2020/12/15 10:32:04;;;;;;;10.83;7.90;;;8.00;99.90;;;;;;6209566;23;20850;-82
2020/12/15 10:34:31;;;;;;;8.73;7.23;;;8.20;99.90;;;;;;6209407;23;20732;-84
2020/12/15 10:36:57;;;;;;;11.27;8.10;;;8.40;99.90;;;;;;6211031;23;20389;-83
2020/12/15 10:39:23;;;;;;;14.27;9.90;;;8.60;99.90;;;;;;6209203;23;20465;-84
2020/12/15 10:41:51;;;;;;;9.00;8.13;;;8.70;99.90;;;;;;6208856;23;20206;-83
2020/12/15 10:44:16;;;;;;;8.80;7.90;;;8.70;99.90;;;;;;6210126;23;20681;-84
2020/12/15 10:46:46;;;;;;;9.10;7.47;;;8.80;99.90;;;;;;6209310;23;20502;-84
2020/12/15 10:49:13;;;;;;;8.93;8.00;;;8.60;99.90;;;;;;6209462;23;20478;-83
2020/12/15 10:51:39;;;;;;;8.30;7.60;;;8.40;99.90;;;;;;6208686;23;20393;-83
2020/12/15 10:54:05;;;;;;;9.57;7.90;;;8.30;99.90;;;;;;6208840;23;20402;-85
2020/12/15 10:56:31;;;;;;;9.93;7.73;;;8.40;99.90;;;;;;6209913;23;20385;-84
2020/12/15 10:58:57;;;;;;;8.63;7.77;;;8.40;99.90;;;;;;6209153;23;20541;-84
2020/12/15 11:01:36;;;;;;;8.73;7.83;;;8.60;99.90;;;;;;6208201;23;20883;-86
2020/12/15 11:04:02;;;;;;;9.10;8.20;;;8.70;99.90;;;;;;6210510;23;20158;-86
2020/12/15 11:06:28;;;;;;;8.83;7.60;;;8.70;99.90;;;;;;6213793;23;20477;-83
2020/12/15 11:08:54;;;;;;;9.63;7.80;;;8.80;99.90;;;;;;6213332;23;20149;-84
2020/12/15 11:11:20;;;;;;;8.40;7.60;;;8.80;99.90;;;;;;6214465;23;20873;-84
2020/12/15 11:16:24;;;;;;;9.57;8.20;;;8.90;99.90;;;;;;6252082;23;20371;-84
2020/12/15 11:18:50;;;;;;;10.70;8.83;;;9.10;99.90;;;;;;6213361;23;20445;-84
2020/12/15 11:21:32;;;;;;;9.07;8.17;;;9.20;99.90;;;;;;6214170;23;20468;-85
2020/12/15 11:24:01;;;;;;;10.07;9.00;;;9.60;99.90;;;;;;6214595;23;20172;-85
2020/12/15 11:26:29;;;;;;;10.83;9.27;;;9.90;99.90;;;;;;6214215;23;20386;-84
2020/12/15 11:29:46;;;;;;;12.53;9.80;;;10.20;99.90;;;;;;6213711;23;20444;-89
2020/12/15 11:32:17;;;;;;;14.40;11.10;;;10.60;99.90;;;;;;6209832;23;20158;-84
2020/12/15 11:35:01;;;;;;;11.90;10.60;;;11.10;99.90;;;;;;6214244;23;20388;-85
2020/12/15 11:37:27;;;;;;;10.70;9.60;;;11.40;99.90;;;;;;6214331;23;20670;-85
2020/12/15 11:39:53;;;;;;;11.00;9.30;;;11.70;99.90;;;;;;6213846;23;20514;-85
2020/12/15 11:42:18;;;;;;;10.20;7.87;;;11.80;99.90;;;;;;6214393;23;20151;-83
2020/12/15 11:44:44;;;;;;;11.43;9.00;;;11.60;99.90;;;;;;6213472;23;20463;-85
2020/12/15 11:47:15;;;;;;;8.70;7.77;;;11.50;99.90;;;;;;6240756;23;20189;-87
2020/12/15 11:49:41;;;;;;;8.67;7.87;;;11.30;99.90;;;;;;6240410;23;20248;-82
2020/12/15 11:52:08;;;;;;;9.03;8.10;;;10.90;99.90;;;;;;6240279;23;20390;-85
2020/12/15 11:54:39;;;;;;;9.13;8.33;;;10.70;99.90;;;;;;6214107;23;20163;-85
2020/12/15 11:57:06;;;;;;;10.20;8.10;;;10.50;99.90;;;;;;6213452;23;20386;-84
2020/12/15 11:59:31;;;;;;;8.20;7.40;;;10.20;99.90;;;;;;6213498;23;20445;-83
2020/12/15 12:01:57;;;;;;;10.37;9.27;;;10.10;99.90;;;;;;6212702;23;20762;-83
2020/12/15 12:04:23;;;;;;;8.03;7.30;;;10.10;99.90;;;;;;6214717;23;20191;-83
2020/12/15 12:06:48;;;;;;;8.33;7.00;;;10.00;99.90;;;;;;6214917;23;20250;-82
2020/12/15 12:09:14;;;;;;;21.47;8.40;;;9.90;99.90;;;;;;6214076;23;20156;-83
2020/12/15 12:11:42;;;;;;;8.10;6.97;;;9.70;99.90;;;;;;6215482;23;20159;-83
2020/12/15 12:14:10;;;;;;;11.07;8.73;;;9.70;99.90;;;;;;6215393;23;20151;-82
2020/12/15 12:16:54;;;;;;;10.90;8.70;;;9.80;99.90;;;;;;6242706;23;20381;-83
2020/12/15 12:19:20;;;;;;;25.53;10.87;;;9.60;99.90;;;;;;6215091;23;20432;-83
2020/12/15 12:21:53;;;;;;;11.83;9.40;;;9.50;99.90;;;;;;6215166;23;20388;-83
2020/12/15 12:24:38;;;;;;;10.17;9.07;;;9.40;99.90;;;;;;6215765;23;20157;-85
2020/12/15 12:27:11;;;;;;;17.60;9.97;;;9.30;99.90;;;;;;6215756;23;20380;-84
2020/12/15 12:29:41;;;;;;;12.63;11.33;;;9.30;99.90;;;;;;6214890;23;20381;-83
2020/12/15 12:32:07;;;;;;;12.13;10.80;;;9.30;99.90;;;;;;6214792;23;20388;-82
2020/12/15 12:34:33;;;;;;;10.67;9.20;;;9.30;99.90;;;;;;6215074;23;20380;-84
2020/12/15 12:36:59;;;;;;;9.83;8.80;;;9.40;99.90;;;;;;6215267;23;20237;-82
2020/12/15 12:39:34;;;;;;;15.33;12.70;;;9.40;99.90;;;;;;6215264;23;20441;-84
2020/12/15 12:41:59;;;;;;;15.10;12.03;;;9.60;99.90;;;;;;6191270;23;20396;-83
2020/12/15 12:44:37;;;;;;;11.93;9.70;;;9.60;99.90;;;;;;6215839;23;20780;-83
2020/12/15 12:47:02;;;;;;;9.87;8.90;;;9.60;99.90;;;;;;6215320;23;20208;-84
2020/12/15 12:49:31;;;;;;;10.10;7.83;;;9.60;99.90;;;;;;6215052;23;20485;-84
2020/12/15 12:51:57;;;;;;;9.53;7.00;;;9.70;99.90;;;;;;6213629;23;20186;-83
2020/12/15 12:54:49;;;;;;;;;;;;;;;;;;;;;
2020/12/15 12:57:15;;;;;;;9.47;8.47;;;9.80;99.90;;;;;;6242195;23;20489;-84
2020/12/15 12:59:44;;;;;;;10.07;9.03;;;9.90;99.90;;;;;;6214365;23;20465;-84
2020/12/15 13:02:11;;;;;;;10.30;8.13;;;9.90;99.90;;;;;;6214996;23;20163;-83
2020/12/15 13:04:40;;;;;;;10.93;7.70;;;9.80;99.90;;;;;;6214721;23;20398;-83
2020/12/15 13:07:06;;;;;;;8.77;7.53;;;9.70;99.90;;;;;;6215059;23;20406;-83
2020/12/15 13:09:39;;;;;;;8.57;6.80;;;9.60;99.90;;;;;;6213497;23;20394;-84
2020/12/15 13:12:17;;;;;;;7.37;6.60;;;9.50;99.90;;;;;;6214130;23;20922;-83
2020/12/15 13:14:56;;;;;;;7.50;6.67;;;9.50;99.90;;;;;;6214667;23;20422;-83
2020/12/15 13:17:24;;;;;;;9.20;7.60;;;9.40;99.90;;;;;;6214812;23;20421;-83
2020/12/15 13:19:54;;;;;;;15.53;10.30;;;9.40;99.90;;;;;;6240047;23;20420;-84
2020/12/15 13:22:24;;;;;;;9.40;8.40;;;9.40;99.90;;;;;;6214281;23;20391;-84
2020/12/15 13:24:51;;;;;;;10.67;9.57;;;9.30;99.90;;;;;;6215570;23;20390;-84
2020/12/15 13:27:23;;;;;;;10.00;8.80;;;9.40;99.90;;;;;;6214066;23;20389;-84
2020/12/15 13:30:09;;;;;;;9.30;8.40;;;9.40;99.90;;;;;;6233456;23;20377;-84
2020/12/15 13:32:43;;;;;;;8.07;7.27;;;9.50;99.90;;;;;;6207699;23;20477;-86
2020/12/15 13:35:11;;;;;;;9.50;8.50;;;9.40;99.90;;;;;;6208779;23;20405;-85
2020/12/15 13:37:39;;;;;;;10.57;9.23;;;9.50;99.90;;;;;;6182781;23;20502;-84
2020/12/15 13:40:08;;;;;;;11.70;8.23;;;9.50;99.90;;;;;;6181899;23;20727;-84
2020/12/15 13:42:35;;;;;;;9.80;8.80;;;9.50;99.90;;;;;;6208677;23;20448;-85
2020/12/15 13:45:11;;;;;;;8.53;7.63;;;9.50;99.90;;;;;;6209541;23;20712;-84
2020/12/15 13:47:37;;;;;;;8.07;7.27;;;9.50;99.90;;;;;;6209714;23;20464;-85
2020/12/15 13:50:09;;;;;;;9.40;7.33;;;9.50;99.90;;;;;;6208946;23;20749;-83
2020/12/15 13:52:34;;;;;;;9.03;8.10;;;9.50;99.90;;;;;;6209909;23;20169;-84
2020/12/15 13:55:00;;;;;;;10.13;9.10;;;9.60;99.90;;;;;;6210177;23;20390;-84
2020/12/15 13:57:26;;;;;;;9.13;8.23;;;9.70;99.90;;;;;;6209719;23;20585;-85
2020/12/15 13:59:51;;;;;;;8.33;7.40;;;9.80;99.90;;;;;;6209264;23;20246;-85
2020/12/15 14:02:17;;;;;;;8.43;6.27;;;9.90;99.90;;;;;;6209314;23;20505;-83
2020/12/15 14:04:51;;;;;;;7.90;6.70;;;9.90;99.90;;;;;;6208928;23;20538;-84
2020/12/15 14:07:17;;;;;;;6.40;5.80;;;9.80;99.90;;;;;;6209868;23;20253;-83
2020/12/15 14:09:42;;;;;;;8.50;6.83;;;9.70;99.90;;;;;;6210388;23;20417;-83
2020/12/15 14:12:16;;;;;;;6.73;6.00;;;9.70;99.90;;;;;;6209417;23;20178;-85
2020/12/15 14:14:41;;;;;;;9.33;7.30;;;9.70;99.90;;;;;;6210250;23;20189;-85
2020/12/15 14:17:08;;;;;;;10.73;7.47;;;9.70;99.90;;;;;;6209924;23;20394;-85
2020/12/15 14:19:33;;;;;;;6.80;6.20;;;9.60;99.90;;;;;;6209590;23;20573;-85
2020/12/15 14:22:00;;;;;;;7.10;6.40;;;9.60;99.90;;;;;;6209617;23;20822;-84
2020/12/15 14:24:29;;;;;;;8.63;7.73;;;9.60;99.90;;;;;;6209010;23;20169;-84
2020/12/15 14:26:54;;;;;;;7.10;6.40;;;9.60;99.90;;;;;;6209592;23;20386;-84
2020/12/15 14:29:20;;;;;;;8.60;7.60;;;9.50;99.90;;;;;;6209686;23;20394;-84
2020/12/15 14:31:47;;;;;;;9.70;7.67;;;9.40;99.90;;;;;;6209246;23;20245;-84
2020/12/15 14:34:13;;;;;;;7.67;6.80;;;9.40;99.90;;;;;;6209494;23;20168;-83
2020/12/15 14:36:38;;;;;;;8.20;6.80;;;9.30;99.90;;;;;;6208738;23;20386;-86
2020/12/15 14:39:06;;;;;;;9.33;7.87;;;9.20;99.90;;;;;;6209651;23;20621;-85
2020/12/15 14:41:33;;;;;;;9.40;8.10;;;9.20;99.90;;;;;;6208989;23;20159;-85
2020/12/15 14:43:59;;;;;;;7.73;6.93;;;9.10;99.90;;;;;;6209415;23;20443;-86
2020/12/15 14:46:24;;;;;;;7.60;6.83;;;9.10;99.90;;;;;;6204717;23;20397;-85
2020/12/15 14:48:58;;;;;;;7.80;7.07;;;9.10;99.90;;;;;;6209982;23;20169;-84
2020/12/15 14:51:24;;;;;;;7.57;6.77;;;9.10;99.90;;;;;;6209490;23;20605;-85
2020/12/15 14:54:01;;;;;;;8.13;7.20;;;9.00;99.90;;;;;;6209495;23;20429;-85
2020/12/15 14:58:58;;;;;;;9.83;8.80;;;9.00;99.90;;;;;;6236515;23;20449;-84
2020/12/15 15:01:24;;;;;;;8.93;8.03;;;9.00;99.90;;;;;;6208973;23;20512;-85
2020/12/15 15:03:49;;;;;;;8.53;7.73;;;8.90;99.90;;;;;;6208716;23;20247;-84
2020/12/15 15:06:15;;;;;;;9.40;8.60;;;9.00;99.90;;;;;;6209363;23;20231;-84
2020/12/15 15:08:41;;;;;;;12.33;8.80;;;9.00;99.90;;;;;;6207742;23;20585;-85
2020/12/15 15:11:11;;;;;;;13.50;11.53;;;9.00;99.90;;;;;;6208273;23;20210;-84
2020/12/15 15:13:37;;;;;;;11.27;10.13;;;9.00;99.90;;;;;;6206323;23;20181;-85
2020/12/15 15:16:03;;;;;;;11.30;8.67;;;9.00;99.90;;;;;;6208675;23;20892;-84
2020/12/15 15:18:29;;;;;;;10.23;8.80;;;8.90;99.90;;;;;;6209492;23;20755;-84
2020/12/15 15:20:55;;;;;;;9.10;8.07;;;8.90;99.90;;;;;;6208323;23;20396;-85
2020/12/15 15:23:21;;;;;;;8.70;7.80;;;9.00;99.90;;;;;;6208806;23;20401;-84
2020/12/15 15:25:47;;;;;;;8.77;7.87;;;9.00;99.90;;;;;;6208956;23;20720;-84
2020/12/15 15:28:12;;;;;;;8.90;8.00;;;9.00;99.90;;;;;;6208699;23;20397;-83
2020/12/15 15:30:38;;;;;;;8.97;7.77;;;9.00;99.90;;;;;;6208667;23;20158;-82
2020/12/15 15:33:04;;;;;;;8.40;7.57;;;9.00;99.90;;;;;;6209367;23;20165;-81
2020/12/15 15:35:29;;;;;;;8.80;7.90;;;8.90;99.90;;;;;;6209199;23;20205;-83
2020/12/15 15:37:55;;;;;;;10.80;9.13;;;8.90;99.90;;;;;;6210108;23;20185;-82
2020/12/15 15:40:21;;;;;;;11.27;9.47;;;9.00;99.90;;;;;;6210953;23;20169;-82
2020/12/15 15:42:47;;;;;;;14.10;11.40;;;9.00;99.90;;;;;;6210318;23;20158;-82
2020/12/15 15:45:12;;;;;;;15.17;13.50;;;9.00;99.90;;;;;;6211030;23;20169;-82
2020/12/15 15:47:38;;;;;;;16.80;15.03;;;8.90;99.90;;;;;;6211086;23;20154;-82
2020/12/15 15:50:05;;;;;;;19.07;15.87;;;8.90;99.90;;;;;;6210451;23;20549;-82
2020/12/15 15:52:31;;;;;;;16.30;14.50;;;8.90;99.90;;;;;;6210946;23;20215;-82
2020/12/15 15:54:57;;;;;;;17.50;15.70;;;9.00;99.90;;;;;;6210739;23;20430;-83
2020/12/15 15:57:23;;;;;;;20.40;15.03;;;9.00;99.90;;;;;;6210672;23;20612;-83
2020/12/15 15:59:49;;;;;;;23.53;15.70;;;9.00;99.90;;;;;;6210152;23;20510;-85
2020/12/15 16:02:15;;;;;;;14.53;13.03;;;9.00;99.90;;;;;;6210269;23;20392;-85
2020/12/15 16:04:40;;;;;;;15.23;13.40;;;9.00;99.90;;;;;;6210629;23;20534;-84
2020/12/15 16:07:11;;;;;;;18.90;14.80;;;9.00;99.90;;;;;;6206189;23;20179;-84
2020/12/15 16:09:37;;;;;;;21.70;13.17;;;9.10;99.90;;;;;;6211151;23;20506;-83
2020/12/15 16:12:02;;;;;;;22.30;12.47;;;9.10;99.90;;;;;;6210111;23;20394;-81
2020/12/15 16:14:28;;;;;;;12.30;9.80;;;9.10;99.90;;;;;;6209634;23;20166;-83
2020/12/15 16:16:55;;;;;;;12.07;8.73;;;9.10;99.90;;;;;;6210726;23;20159;-82
2020/12/15 16:19:23;;;;;;;9.40;8.10;;;9.10;99.90;;;;;;6210586;23;20507;-82
2020/12/15 16:21:52;;;;;;;10.20;8.60;;;9.10;99.90;;;;;;6210282;23;20476;-84
2020/12/15 16:24:24;;;;;;;16.27;13.00;;;9.10;99.90;;;;;;6211257;23;20394;-85
2020/12/15 16:26:52;;;;;;;16.83;12.73;;;9.20;99.90;;;;;;6210121;23;20781;-84
2020/12/15 16:29:38;;;;;;;11.53;10.33;;;9.20;99.90;;;;;;6236945;23;20394;-84
2020/12/15 16:32:06;;;;;;;11.00;9.23;;;9.20;99.90;;;;;;6210044;23;20399;-84
2020/12/15 16:34:32;;;;;;;12.10;9.70;;;9.20;99.90;;;;;;6209632;23;20194;-82
2020/12/15 16:36:58;;;;;;;11.20;9.77;;;9.20;99.90;;;;;;6209901;23;20812;-82
2020/12/15 16:39:23;;;;;;;11.53;9.63;;;9.20;99.90;;;;;;6237105;23;20185;-82
2020/12/15 16:41:50;;;;;;;12.30;9.60;;;9.10;99.90;;;;;;6210048;23;20612;-81
2020/12/15 16:44:15;;;;;;;10.87;9.80;;;9.10;99.90;;;;;;6210591;23;20630;-82
2020/12/15 16:46:41;;;;;;;11.50;10.40;;;9.00;99.90;;;;;;6210452;23;20386;-82
2020/12/15 16:49:08;;;;;;;10.67;9.67;;;9.10;99.90;;;;;;6209189;23;20166;-83
2020/12/15 16:51:35;;;;;;;9.90;8.90;;;9.00;99.90;;;;;;6209977;23;20159;-83
2020/12/15 16:54:01;;;;;;;9.30;8.30;;;9.10;99.90;;;;;;6210224;23;20402;-82
2020/12/15 16:56:27;;;;;;;11.57;7.70;;;9.10;99.90;;;;;;6210515;23;20386;-83
2020/12/15 16:58:52;;;;;;;11.23;8.17;;;9.10;99.90;;;;;;6208725;23;20953;-83
2020/12/15 17:01:20;;;;;;;9.27;8.37;;;9.00;99.90;;;;;;6210765;23;20269;-83
2020/12/15 17:03:54;;;;;;;8.93;8.13;;;9.00;99.90;;;;;;6237543;23;20204;-83
2020/12/15 17:06:22;;;;;;;11.60;9.70;;;8.90;99.90;;;;;;6209998;23;20515;-82
2020/12/15 17:08:48;;;;;;;12.20;10.53;;;8.90;99.90;;;;;;6211438;23;20197;-83
2020/12/15 17:11:16;;;;;;;10.67;9.67;;;8.90;99.90;;;;;;6210315;23;20394;-84
2020/12/15 17:13:41;;;;;;;11.87;10.67;;;8.90;99.90;;;;;;6210371;23;20158;-83
2020/12/15 17:16:07;;;;;;;10.63;9.40;;;8.90;99.90;;;;;;6211442;23;20393;-84
2020/12/15 17:18:33;;;;;;;13.00;8.80;;;8.90;99.90;;;;;;6210783;23;20201;-84
2020/12/15 17:20:59;;;;;;;11.40;9.60;;;8.90;99.90;;;;;;6209761;23;20158;-84
2020/12/15 17:23:24;;;;;;;9.80;8.80;;;8.90;99.90;;;;;;6209350;23;20163;-84
2020/12/15 17:25:50;;;;;;;10.80;9.77;;;8.90;99.90;;;;;;6209644;23;20873;-83
2020/12/15 17:28:17;;;;;;;10.50;8.90;;;8.90;99.90;;;;;;6210013;23;20545;-84
2020/12/15 17:30:43;;;;;;;10.93;9.70;;;8.90;99.90;;;;;;6209094;23;20590;-83
2020/12/15 17:33:10;;;;;;;10.60;9.53;;;8.90;99.90;;;;;;6208874;23;20484;-84
2020/12/15 17:35:36;;;;;;;13.00;11.40;;;9.00;99.90;;;;;;6209711;23;20611;-84
2020/12/15 17:38:02;;;;;;;11.17;10.17;;;9.00;99.90;;;;;;6209564;23;20445;-84
2020/12/15 17:40:28;;;;;;;10.40;9.50;;;9.00;99.90;;;;;;6236030;23;20374;-84
2020/12/15 17:42:53;;;;;;;10.60;9.00;;;9.00;99.90;;;;;;6209631;23;20428;-83
2020/12/15 17:45:19;;;;;;;14.40;11.03;;;9.00;99.90;;;;;;6210198;23;20588;-82
2020/12/15 17:47:44;;;;;;;10.37;9.37;;;9.00;99.90;;;;;;6209739;23;20162;-84
2020/12/15 17:50:10;;;;;;;11.27;10.07;;;9.00;99.90;;;;;;6210025;23;20163;-84
2020/12/15 17:52:36;;;;;;;10.43;9.43;;;9.00;99.90;;;;;;6209963;23;20163;-82
2020/12/15 17:55:01;;;;;;;11.43;9.20;;;9.10;99.90;;;;;;6209974;23;20164;-83
2020/12/15 17:57:27;;;;;;;9.10;8.30;;;9.10;99.90;;;;;;6209597;23;20241;-83
2020/12/15 17:59:53;;;;;;;9.60;8.60;;;9.00;99.90;;;;;;6209240;23;20306;-83
2020/12/15 18:02:22;;;;;;;9.23;7.87;;;9.00;99.90;;;;;;6209328;23;20155;-82
2020/12/15 18:04:48;;;;;;;9.40;8.50;;;9.00;99.90;;;;;;6209346;23;20463;-83
2020/12/15 18:07:14;;;;;;;8.10;7.30;;;9.00;99.90;;;;;;6236624;23;20883;-83
2020/12/15 18:09:39;;;;;;;10.80;9.70;;;9.00;99.90;;;;;;6209835;23;20162;-83
2020/12/15 18:12:05;;;;;;;12.50;9.20;;;9.00;99.90;;;;;;6209249;23;20165;-82
2020/12/15 18:14:31;;;;;;;13.60;10.83;;;9.00;99.90;;;;;;6209241;23;20632;-82
2020/12/15 18:16:56;;;;;;;12.50;11.37;;;9.00;99.90;;;;;;6209219;23;20158;-82
2020/12/15 18:19:22;;;;;;;10.90;9.83;;;9.00;99.90;;;;;;6209538;23;20204;-83
2020/12/15 18:21:47;;;;;;;11.40;9.97;;;8.90;99.90;;;;;;6208422;23;20608;-82
2020/12/15 18:24:13;;;;;;;8.57;7.80;;;9.00;99.90;;;;;;6209424;23;20497;-82
2020/12/15 18:26:39;;;;;;;12.20;11.10;;;9.00;99.90;;;;;;6209525;23;20158;-83
2020/12/15 18:29:04;;;;;;;13.00;11.80;;;8.90;99.90;;;;;;6209349;23;20159;-83
2020/12/15 18:31:31;;;;;;;14.80;12.80;;;8.90;99.90;;;;;;6208799;23;20238;-82
2020/12/15 18:33:58;;;;;;;14.20;12.80;;;8.90;99.90;;;;;;6209432;23;20163;-82
2020/12/15 18:36:23;;;;;;;15.40;13.90;;;8.80;99.90;;;;;;6209049;23;20394;-83
2020/12/15 18:38:49;;;;;;;15.70;13.20;;;8.80;99.90;;;;;;6208983;23;20447;-83
2020/12/15 18:41:15;;;;;;;15.07;13.57;;;8.80;99.90;;;;;;6209392;23;20194;-83
2020/12/15 18:43:41;;;;;;;16.00;13.83;;;8.70;99.90;;;;;;6209151;23;20389;-83
2020/12/15 18:46:07;;;;;;;13.47;12.07;;;8.60;99.90;;;;;;6208800;23;20460;-83
2020/12/15 18:48:33;;;;;;;13.13;11.60;;;8.60;99.90;;;;;;6209545;23;20249;-83
2020/12/15 18:50:59;;;;;;;11.67;10.67;;;8.60;99.90;;;;;;6208289;23;20159;-83
2020/12/15 18:53:25;;;;;;;11.57;10.40;;;8.60;99.90;;;;;;6208275;23;20409;-83
2020/12/15 18:55:54;;;;;;;12.10;10.23;;;8.60;99.90;;;;;;6208944;23;20415;-83
2020/12/15 18:58:23;;;;;;;9.77;8.77;;;8.60;99.90;;;;;;6208711;23;20225;-83
2020/12/15 19:00:49;;;;;;;10.63;9.60;;;8.60;99.90;;;;;;6209085;23;20896;-83
2020/12/15 19:03:15;;;;;;;10.20;9.30;;;8.60;99.90;;;;;;6209219;23;20437;-83
2020/12/15 19:05:42;;;;;;;9.60;8.70;;;8.60;99.90;;;;;;6208651;23;20394;-83
2020/12/15 19:08:08;;;;;;;9.53;8.53;;;8.50;99.90;;;;;;6203395;23;20175;-82
2020/12/15 19:10:34;;;;;;;9.50;8.60;;;8.50;99.90;;;;;;6203966;23;20398;-82
2020/12/15 19:12:59;;;;;;;9.03;8.33;;;8.40;99.90;;;;;;6203861;23;20179;-83
2020/12/15 19:15:26;;;;;;;9.17;8.20;;;8.40;99.90;;;;;;6203868;23;20395;-83
2020/12/15 19:17:54;;;;;;;9.20;8.30;;;8.50;99.90;;;;;;6204522;23;20543;-83
2020/12/15 19:20:19;;;;;;;9.97;8.97;;;8.40;99.90;;;;;;6204411;23;20403;-83
2020/12/15 19:22:48;;;;;;;9.60;8.60;;;8.40;99.90;;;;;;6203722;23;20386;-83
2020/12/15 19:25:17;;;;;;;11.53;10.23;;;8.40;99.90;;;;;;6204294;23;20170;-84
2020/12/15 19:27:44;;;;;;;10.87;9.77;;;8.40;99.90;;;;;;6204268;23;20444;-84
2020/12/15 19:30:10;;;;;;;11.47;10.37;;;8.40;99.90;;;;;;6203672;23;20936;-83
2020/12/15 19:32:36;;;;;;;10.53;9.60;;;8.40;99.90;;;;;;6203855;23;20496;-83
2020/12/15 19:35:04;;;;;;;9.03;8.20;;;8.30;99.90;;;;;;6204572;23;20167;-83
2020/12/15 19:37:37;;;;;;;9.10;8.20;;;8.40;99.90;;;;;;6203806;23;20398;-82
2020/12/15 19:40:06;;;;;;;11.37;10.27;;;8.30;99.90;;;;;;6203879;23;20414;-86
2020/12/15 19:42:32;;;;;;;10.13;9.23;;;8.30;99.90;;;;;;6203824;23;20386;-85
2020/12/15 19:44:58;;;;;;;8.30;7.60;;;8.30;99.90;;;;;;6203721;23;20397;-84
2020/12/15 19:47:27;;;;;;;8.20;7.23;;;8.40;99.90;;;;;;6203679;23;20868;-84
2020/12/15 19:49:54;;;;;;;8.87;8.10;;;8.30;99.90;;;;;;6202153;23;20386;-86
2020/12/15 19:52:21;;;;;;;8.90;7.40;;;8.30;99.90;;;;;;6202688;23;20802;-84
2020/12/15 19:54:47;;;;;;;6.80;6.10;;;8.30;99.90;;;;;;6177303;23;20402;-85
2020/12/15 19:57:13;;;;;;;21.10;19.00;;;8.20;99.90;;;;;;6203652;23;20395;-83
2020/12/15 19:59:38;;;;;;;18.03;16.37;;;8.20;99.90;;;;;;6201143;23;20540;-83
2020/12/15 20:02:06;;;;;;;16.70;14.90;;;8.30;99.90;;;;;;6202784;23;20178;-83
2020/12/15 20:04:33;;;;;;;13.30;12.00;;;8.30;99.90;;;;;;6202668;23;20246;-83